Time;durP1;ratioP1;P1;durP2;ratioP2;P2;SDS_P1;SDS_P2;PMS_P1;PMS_P2;Temp;Humidity;BMP_temperature;BMP_pressure;BME280_temperature;BME280_humidity;BME280_pressure;Samples;Min_cycle;Max_cycle;Signal;HPM_P1;HPM_P2
2022/07/24 00:01:51;;;;;;;1.90;1.63;;;;;;;25.07;50.64;93784.63;5073476;28;20039;-90
2022/07/24 00:04:17;;;;;;;2.55;1.77;;;;;;;25.07;50.74;93788.13;5055945;28;20032;-90
2022/07/24 00:06:42;;;;;;;2.50;1.65;;;;;;;25.08;50.79;93783.34;5040183;28;20035;-91
2022/07/24 00:09:08;;;;;;;1.90;1.40;;;;;;;25.06;50.73;93791.44;5055699;28;20043;-91
2022/07/24 00:11:33;;;;;;;2.25;1.77;;;;;;;25.06;50.54;93783.16;5089216;28;20032;-91
2022/07/24 00:13:59;;;;;;;2.00;1.55;;;;;;;25.06;50.73;93781.13;5076675;28;20478;-90
2022/07/24 00:16:24;;;;;;;1.70;1.15;;;;;;;25.06;50.59;93788.69;5075256;28;20055;-91
2022/07/24 00:18:49;;;;;;;2.20;1.65;;;;;;;25.06;50.81;93780.38;5044414;28;20041;-91
2022/07/24 00:21:15;;;;;;;1.88;1.52;;;;;;;25.06;50.72;93783.16;5020406;28;20035;-91
2022/07/24 00:23:42;;;;;;;2.10;1.40;;;;;;;25.06;50.61;93794.97;5055471;28;20044;-91
2022/07/24 00:26:08;;;;;;;1.50;1.40;;;;;;;25.06;50.74;93796.97;5039092;28;20055;-90
2022/07/24 00:28:34;;;;;;;2.40;1.63;;;;;;;25.06;50.51;93788.69;5055977;28;20036;-91
2022/07/24 00:30:59;;;;;;;2.20;1.70;;;;;;;25.04;50.57;93788.47;5056609;28;20036;-91
2022/07/24 00:33:25;;;;;;;2.42;1.50;;;;;;;25.06;50.53;93792.19;5036145;28;20081;-91
2022/07/24 00:35:50;;;;;;;2.47;1.38;;;;;;;25.03;50.62;93798.06;5056172;28;20048;-91
2022/07/24 00:38:16;;;;;;;2.58;1.70;;;;;;;25.04;50.55;93794.75;5038641;28;20036;-91
2022/07/24 00:40:41;;;;;;;2.28;1.73;;;;;;;25.06;50.49;93802.50;5055648;28;20040;-90
2022/07/24 00:43:07;;;;;;;2.25;1.70;;;;;;;25.03;50.68;93804.34;5055886;28;20027;-90
2022/07/24 00:45:32;;;;;;;1.88;1.67;;;;;;;25.03;50.61;93804.34;5054329;28;20039;-90
2022/07/24 00:47:57;;;;;;;2.22;1.67;;;;;;;25.02;50.41;93799.34;5055097;28;20040;-91
2022/07/24 00:50:23;;;;;;;2.63;1.83;;;;;;;25.04;50.54;93797.53;5055456;28;20036;-91
2022/07/24 00:52:49;;;;;;;2.22;1.88;;;;;;;25.02;50.56;93797.31;5055999;28;20040;-91
2022/07/24 00:55:14;;;;;;;2.30;1.70;;;;;;;25.04;50.42;93794.75;5038662;28;20074;-91
2022/07/24 00:57:43;;;;;;;2.50;1.80;;;;;;;25.03;50.45;93798.06;5054975;28;20028;-90
2022/07/24 01:00:09;;;;;;;2.30;2.10;;;;;;;25.01;50.69;93801.38;5056946;28;20075;-91
2022/07/24 01:02:35;;;;;;;2.88;1.92;;;;;;;25.02;50.47;93791.06;5054956;28;20456;-91
2022/07/24 01:05:00;;;;;;;2.00;1.70;;;;;;;25.02;50.70;93791.06;5039362;28;20040;-91
2022/07/24 01:07:26;;;;;;;2.88;1.88;;;;;;;25.01;50.76;93789.56;5053322;28;20047;-91
2022/07/24 01:09:51;;;;;;;2.10;1.90;;;;;;;25.01;50.82;93784.03;5074629;28;20082;-91
2022/07/24 01:12:17;;;;;;;2.35;1.80;;;;;;;25.00;50.65;93790.84;5075089;28;20047;-90
2022/07/24 01:14:43;;;;;;;1.92;1.73;;;;;;;25.01;50.54;93781.28;5074870;28;20032;-91
2022/07/24 01:17:09;;;;;;;2.05;1.70;;;;;;;25.02;50.57;93791.06;5076974;28;20044;-91
2022/07/24 01:19:34;;;;;;;2.00;1.80;;;;;;;25.00;50.54;93777.78;5034389;28;20033;-90
2022/07/24 01:21:59;;;;;;;2.20;1.73;;;;;;;25.01;50.40;93784.03;5039503;28;20040;-91
2022/07/24 01:24:25;;;;;;;4.15;2.00;;;;;;;24.99;50.50;93781.81;5054801;28;20073;-91
2022/07/24 01:26:50;;;;;;;2.50;2.10;;;;;;;25.00;50.57;93782.56;5058040;28;20100;-91
2022/07/24 01:29:16;;;;;;;2.00;1.70;;;;;;;24.98;50.63;93785.88;5057464;28;20036;-90
2022/07/24 01:31:41;;;;;;;3.72;2.00;;;;;;;24.99;50.49;93786.59;5058904;28;20039;-91
2022/07/24 01:34:07;;;;;;;2.13;1.75;;;;;;;24.99;50.63;93792.13;5052934;28;20033;-91
2022/07/24 01:36:32;;;;;;;1.95;1.73;;;;;;;24.98;50.57;93794.16;5070557;28;20047;-92
2022/07/24 01:38:58;;;;;;;2.85;2.42;;;;;;;24.98;50.85;93790.66;5057636;28;20498;-91
2022/07/24 01:41:23;;;;;;;2.47;1.70;;;;;;;24.98;50.64;93796.94;5090733;28;20502;-91
2022/07/24 01:43:48;;;;;;;1.80;1.60;;;;;;;24.98;50.47;93794.16;5058144;28;20032;-91
2022/07/24 01:46:14;;;;;;;2.00;1.80;;;;;;;24.97;50.65;93798.22;5072932;28;20039;-91
2022/07/24 01:48:43;;;;;;;2.35;1.70;;;;;;;24.97;50.63;93781.63;5070181;28;20054;-92
2022/07/24 01:51:08;;;;;;;2.65;2.13;;;;;;;24.98;50.64;93785.13;5074139;28;20039;-91
2022/07/24 01:53:34;;;;;;;2.00;1.60;;;;;;;24.97;50.68;93784.38;5090876;28;20031;-91
2022/07/24 01:55:59;;;;;;;2.33;2.13;;;;;;;24.96;50.58;93782.91;5057930;28;20042;-90
2022/07/24 01:58:25;;;;;;;2.65;2.08;;;;;;;24.96;50.68;93785.66;5050841;28;20572;-91
2022/07/24 02:00:50;;;;;;;2.60;2.10;;;;;;;24.95;50.63;93778.66;5037709;28;20056;-91
2022/07/24 02:03:16;;;;;;;2.53;2.15;;;;;;;24.97;50.40;93778.84;5054381;28;20055;-91
2022/07/24 02:05:41;;;;;;;2.55;2.20;;;;;;;24.94;50.63;93772.38;5070413;28;20048;-91
2022/07/24 02:08:06;;;;;;;3.10;2.20;;;;;;;24.96;50.59;93773.88;5037337;28;20025;-91
2022/07/24 02:10:32;;;;;;;2.08;1.42;;;;;;;24.94;50.65;93772.38;5053963;28;20032;-91
2022/07/24 02:12:57;;;;;;;2.72;2.10;;;;;;;24.95;50.55;93773.13;5057910;28;20036;-91
2022/07/24 02:15:23;;;;;;;2.40;2.20;;;;;;;24.94;50.72;93775.16;5057055;28;20362;-91
2022/07/24 02:17:50;;;;;;;2.17;1.98;;;;;;;24.96;50.47;93776.63;5070944;28;20039;-91
2022/07/24 02:20:16;;;;;;;2.08;1.60;;;;;;;24.93;50.54;93779.16;5052357;28;20024;-90
2022/07/24 02:22:42;;;;;;;2.35;1.80;;;;;;;24.94;50.62;93772.38;5043922;28;20043;-92
2022/07/24 02:25:08;;;;;;;2.67;2.17;;;;;;;24.94;50.63;93772.38;5057064;28;20059;-91
2022/07/24 02:27:33;;;;;;;2.40;2.20;;;;;;;24.93;50.56;93765.34;5072971;28;20550;-92
2022/07/24 02:29:58;;;;;;;2.05;1.63;;;;;;;24.93;50.37;93773.63;5056690;28;20028;-91
2022/07/24 02:32:24;;;;;;;2.25;2.05;;;;;;;24.93;50.88;93768.09;5056937;28;20398;-91
2022/07/24 02:34:50;;;;;;;2.38;1.77;;;;;;;24.91;50.38;93773.44;5062783;28;20052;-91
2022/07/24 02:37:15;;;;;;;2.22;1.50;;;;;;;24.94;50.39;93768.84;5036614;28;20062;-90
2022/07/24 02:39:41;;;;;;;1.85;1.63;;;;;;;24.91;50.51;93767.91;5049705;28;20104;-91
2022/07/24 02:42:06;;;;;;;2.30;1.85;;;;;;;24.93;50.57;93776.41;5073466;28;20027;-91
2022/07/24 02:44:32;;;;;;;3.85;1.90;;;;;;;24.93;50.55;93776.41;5055937;28;20120;-91
2022/07/24 02:46:57;;;;;;;2.65;2.30;;;;;;;24.92;50.49;93780.47;5073899;28;20482;-91
2022/07/24 02:49:23;;;;;;;2.65;1.88;;;;;;;24.92;50.42;93774.19;5069618;28;20558;-91
2022/07/24 02:51:48;;;;;;;2.50;2.10;;;;;;;24.94;50.46;93779.91;5057229;28;20032;-92
2022/07/24 02:54:14;;;;;;;2.40;1.95;;;;;;;24.90;50.50;93779.53;5074333;28;20448;-92
2022/07/24 02:56:39;;;;;;;2.38;2.17;;;;;;;24.91;50.67;93769.94;5070964;28;20047;-91
2022/07/24 02:59:04;;;;;;;3.22;2.45;;;;;;;24.92;50.74;93779.72;5081736;28;20045;-91
2022/07/24 03:01:30;;;;;;;2.72;2.22;;;;;;;24.91;50.61;93778.97;5054157;28;20514;-91
2022/07/24 03:03:55;;;;;;;2.10;1.80;;;;;;;24.91;50.62;93781.00;5067394;28;20036;-91
2022/07/24 03:06:21;;;;;;;2.95;2.47;;;;;;;24.91;50.56;93778.22;5069252;28;20036;-91
2022/07/24 03:08:46;;;;;;;2.85;2.60;;;;;;;24.90;50.52;93779.53;5028671;28;20459;-91
2022/07/24 03:11:12;;;;;;;3.53;2.40;;;;;;;24.88;50.48;93776.59;5011777;28;20041;-91
2022/07/24 03:13:37;;;;;;;3.00;2.42;;;;;;;24.90;50.70;93785.06;4989500;28;20038;-91
2022/07/24 03:16:03;;;;;;;3.20;2.60;;;;;;;24.89;50.63;93778.81;5028418;28;20037;-91
2022/07/24 03:18:28;;;;;;;2.92;2.42;;;;;;;24.89;50.68;93786.34;5010819;28;20053;-92
2022/07/24 03:20:54;;;;;;;2.50;2.30;;;;;;;24.89;50.68;93789.13;5011855;28;20030;-91
2022/07/24 03:23:19;;;;;;;2.30;2.10;;;;;;;24.88;50.49;93779.34;4997210;28;20034;-90
2022/07/24 03:25:45;;;;;;;3.03;2.33;;;;;;;24.89;50.63;93789.13;4992192;28;20045;-90
2022/07/24 03:28:10;;;;;;;2.60;2.40;;;;;;;24.87;50.60;93789.66;4992718;28;20045;-91
2022/07/24 03:30:36;;;;;;;2.72;2.40;;;;;;;24.87;50.54;93781.38;4990585;28;20045;-91
2022/07/24 03:33:01;;;;;;;2.65;2.40;;;;;;;24.87;50.70;93786.91;5000167;28;20064;-90
2022/07/24 03:35:26;;;;;;;2.30;1.90;;;;;;;24.87;50.53;93794.47;5007535;28;20037;-90
2022/07/24 03:37:52;;;;;;;2.80;2.03;;;;;;;24.87;50.24;93791.69;5042202;28;20053;-91
2022/07/24 03:40:17;;;;;;;1.80;1.63;;;;;;;24.86;50.43;93785.41;5047723;28;20031;-90
2022/07/24 03:42:43;;;;;;;2.83;2.30;;;;;;;24.88;50.47;93791.16;5059685;28;20041;-90
2022/07/24 03:45:09;;;;;;;2.55;2.33;;;;;;;24.87;50.54;93783.41;5053096;28;20454;-90
2022/07/24 03:47:34;;;;;;;3.30;2.35;;;;;;;24.86;50.68;93792.97;5023443;28;20037;-93
2022/07/24 03:49:59;;;;;;;2.88;2.55;;;;;;;24.85;50.70;93795.00;5037212;28;20048;-91
2022/07/24 03:52:25;;;;;;;2.92;2.42;;;;;;;24.83;50.50;93789.28;5051401;28;20094;-91
2022/07/24 03:54:51;;;;;;;2.58;2.08;;;;;;;24.85;50.49;93800.53;5036401;28;20056;-90
2022/07/24 03:57:16;;;;;;;2.08;1.73;;;;;;;24.85;50.48;93802.56;5036927;28;20025;-90
2022/07/24 03:59:41;;;;;;;2.00;1.73;;;;;;;24.86;50.54;93802.00;5048273;28;20055;-91
2022/07/24 04:02:07;;;;;;;2.25;1.90;;;;;;;24.85;50.48;93791.50;5059971;28;20039;-91
2022/07/24 04:04:32;;;;;;;2.20;2.00;;;;;;;24.87;50.65;93800.00;5092744;28;20065;-91
2022/07/24 04:06:58;;;;;;;3.00;2.25;;;;;;;24.89;50.45;93800.94;5076946;28;20028;-90
2022/07/24 04:09:23;;;;;;;3.03;2.65;;;;;;;24.93;50.32;93809.59;5075662;28;20035;-91
2022/07/24 04:11:49;;;;;;;2.83;2.47;;;;;;;24.96;50.65;93807.06;5072708;28;20407;-91
2022/07/24 04:14:14;;;;;;;2.40;1.90;;;;;;;24.97;50.37;93812.03;5055365;28;20036;-90
2022/07/24 04:16:39;;;;;;;2.85;2.20;;;;;;;24.96;50.34;93813.31;5055431;28;20499;-93
2022/07/24 04:19:05;;;;;;;2.72;2.40;;;;;;;24.97;50.24;93812.03;5038544;28;20403;-91
2022/07/24 04:21:30;;;;;;;2.60;2.30;;;;;;;24.99;50.26;93812.25;5038005;28;20036;-91
2022/07/24 04:23:56;;;;;;;2.60;2.40;;;;;;;24.99;50.14;93823.31;5036081;28;20036;-91
2022/07/24 04:26:21;;;;;;;2.72;2.45;;;;;;;24.96;50.10;93824.38;5019218;28;20052;-91
2022/07/24 04:28:46;;;;;;;3.15;2.45;;;;;;;24.99;50.30;93819.81;5019910;28;20036;-91
2022/07/24 04:31:12;;;;;;;2.40;2.10;;;;;;;24.99;50.09;93819.81;5018927;28;20036;-91
2022/07/24 04:33:37;;;;;;;2.03;1.75;;;;;;;24.98;50.12;93821.81;5039779;28;20036;-91
2022/07/24 04:36:04;;;;;;;2.70;2.10;;;;;;;24.99;50.20;93822.56;5055882;28;20035;-90
2022/07/24 04:38:30;;;;;;;1.60;1.50;;;;;;;24.96;50.05;93829.94;5036554;28;20226;-91
2022/07/24 04:40:55;;;;;;;2.35;1.70;;;;;;;24.97;50.07;93831.41;5038024;28;20406;-91
2022/07/24 04:43:21;;;;;;;2.35;2.00;;;;;;;24.96;50.29;93834.72;5053698;28;20040;-92
2022/07/24 04:45:46;;;;;;;2.70;2.03;;;;;;;24.95;50.28;93828.44;5055169;28;20581;-91
2022/07/24 04:48:11;;;;;;;2.92;2.08;;;;;;;24.95;50.22;93825.69;5034828;28;20044;-91
2022/07/24 04:50:37;;;;;;;2.33;2.13;;;;;;;24.95;50.11;93833.97;5012233;28;20053;-92
2022/07/24 04:53:02;;;;;;;3.00;2.40;;;;;;;24.97;50.15;93834.16;5036080;28;20033;-91
2022/07/24 04:55:28;;;;;;;2.92;2.30;;;;;;;24.97;50.05;93836.19;5035179;28;20044;-91
2022/07/24 04:57:53;;;;;;;2.33;2.10;;;;;;;24.97;50.01;93844.50;5035633;28;20049;-90
2022/07/24 05:00:18;;;;;;;2.72;2.10;;;;;;;24.96;50.16;93834.72;5026314;28;20028;-91
2022/07/24 05:02:44;;;;;;;2.35;2.15;;;;;;;24.97;50.21;93844.50;5034670;28;20052;-91
2022/07/24 05:05:09;;;;;;;2.45;2.17;;;;;;;24.97;50.15;93844.50;5051405;28;20040;-90
2022/07/24 05:07:35;;;;;;;3.13;2.50;;;;;;;24.98;50.02;93843.22;5050805;28;20499;-90
2022/07/24 05:10:00;;;;;;;2.83;2.53;;;;;;;24.95;50.20;93839.50;5039225;28;20264;-91
2022/07/24 05:12:26;;;;;;;2.55;2.35;;;;;;;24.96;50.08;93843.75;5069716;28;20028;-90
2022/07/24 05:14:51;;;;;;;3.05;2.47;;;;;;;24.98;50.09;93849.47;5038625;28;20035;-90
2022/07/24 05:17:17;;;;;;;2.60;2.05;;;;;;;24.97;49.91;93841.72;5035693;28;20039;-90
2022/07/24 05:19:42;;;;;;;2.17;1.77;;;;;;;24.98;50.11;93848.75;5054538;28;20032;-91
2022/07/24 05:22:08;;;;;;;3.58;1.92;;;;;;;24.99;50.02;93842.66;5035263;28;20044;-91
2022/07/24 05:24:33;;;;;;;2.75;1.92;;;;;;;25.00;49.81;93852.44;5030533;28;20044;-91
2022/07/24 05:26:59;;;;;;;2.10;1.85;;;;;;;25.01;50.03;93853.19;5035214;28;20040;-91
2022/07/24 05:29:24;;;;;;;2.20;1.88;;;;;;;25.00;50.01;93844.16;5017567;28;20040;-90
2022/07/24 05:31:51;;;;;;;2.15;1.67;;;;;;;25.04;49.93;93846.56;5034160;28;20062;-90
2022/07/24 05:34:16;;;;;;;1.77;1.60;;;;;;;25.02;49.92;93846.38;5046076;28;20125;-90
2022/07/24 05:36:42;;;;;;;1.58;1.40;;;;;;;25.03;49.87;93851.38;5053157;28;20503;-91
2022/07/24 05:39:07;;;;;;;1.55;1.35;;;;;;;25.03;49.97;93848.59;5032093;28;20418;-91
2022/07/24 05:41:33;;;;;;;1.83;1.60;;;;;;;25.04;49.96;93854.88;5032932;28;20067;-92
2022/07/24 05:43:58;;;;;;;2.90;1.77;;;;;;;25.04;50.11;93863.91;5050729;28;20040;-91
2022/07/24 05:46:24;;;;;;;1.27;1.17;;;;;;;25.04;50.00;93855.63;5034132;28;20037;-91
2022/07/24 05:48:49;;;;;;;1.85;1.52;;;;;;;25.06;49.83;93855.06;5034468;28;20381;-91
2022/07/24 05:51:14;;;;;;;1.70;1.50;;;;;;;25.05;49.94;93848.81;5033195;28;20036;-91
2022/07/24 05:53:40;;;;;;;1.65;1.30;;;;;;;25.08;49.71;93855.28;5029430;28;20033;-90
2022/07/24 05:56:06;;;;;;;1.65;1.52;;;;;;;25.09;49.85;93857.50;5051514;28;20523;-93
2022/07/24 05:58:31;;;;;;;1.95;1.75;;;;;;;25.09;49.60;93865.78;5033674;28;20044;-91
2022/07/24 06:00:57;;;;;;;1.60;1.30;;;;;;;25.10;49.73;93855.47;5049941;28;20029;-92
2022/07/24 06:03:23;;;;;;;1.38;1.27;;;;;;;25.12;49.55;93852.88;5034636;28;20089;-90
2022/07/24 06:05:49;;;;;;;2.10;1.70;;;;;;;25.12;49.77;93858.41;5037755;28;20040;-91
2022/07/24 06:08:14;;;;;;;1.75;1.52;;;;;;;25.13;49.71;93865.44;5052535;28;20040;-90
2022/07/24 06:10:40;;;;;;;1.60;1.40;;;;;;;25.14;49.64;93859.34;5049882;28;20060;-90
2022/07/24 06:13:05;;;;;;;1.65;1.33;;;;;;;25.16;49.58;93862.31;5016605;28;20036;-90
2022/07/24 06:15:31;;;;;;;1.92;1.10;;;;;;;25.16;49.22;93859.56;5011975;28;20044;-91
2022/07/24 06:17:57;;;;;;;1.85;1.30;;;;;;;25.17;49.51;93863.78;5033624;28;20040;-91
2022/07/24 06:20:23;;;;;;;1.55;1.35;;;;;;;25.20;49.48;93861.97;5049750;28;20028;-91
2022/07/24 06:22:48;;;;;;;1.38;1.20;;;;;;;25.19;49.46;93869.53;5049929;28;20522;-92
2022/07/24 06:25:14;;;;;;;1.58;1.38;;;;;;;25.20;49.43;93864.75;5050581;28;20395;-91
2022/07/24 06:27:42;;;;;;;1.85;1.45;;;;;;;25.21;49.37;93866.97;5049888;28;20403;-90
2022/07/24 06:30:13;;;;;;;1.83;1.17;;;;;;;25.22;49.44;93865.69;5033777;28;20033;-91
2022/07/24 06:32:39;;;;;;;1.50;1.40;;;;;;;25.23;49.40;93867.16;5033941;28;20039;-90
2022/07/24 06:35:05;;;;;;;1.58;1.45;;;;;;;25.25;49.16;93872.16;5069758;28;20028;-91
2022/07/24 06:37:30;;;;;;;2.55;1.42;;;;;;;25.26;49.12;93868.09;5040770;28;20107;-92
2022/07/24 06:39:56;;;;;;;1.67;1.15;;;;;;;25.25;49.26;93859.06;5040618;28;20521;-92
2022/07/24 06:42:21;;;;;;;1.48;1.23;;;;;;;25.26;49.24;93862.56;5049036;28;20098;-91
2022/07/24 06:44:47;;;;;;;1.77;1.58;;;;;;;25.27;49.19;93861.28;5033590;28;20036;-90
2022/07/24 06:47:12;;;;;;;1.52;1.35;;;;;;;25.28;49.34;93863.50;5033646;28;20033;-90
2022/07/24 06:49:37;;;;;;;1.38;1.27;;;;;;;25.32;49.19;93860.38;5034501;28;20529;-91
2022/07/24 06:52:03;;;;;;;1.45;1.20;;;;;;;25.34;49.19;93854.28;5050489;28;20037;-91
2022/07/24 06:54:28;;;;;;;1.70;1.40;;;;;;;25.32;49.30;93860.38;5030981;28;20375;-90
2022/07/24 06:56:54;;;;;;;1.48;1.38;;;;;;;25.34;49.25;93862.59;5051022;28;20032;-91
2022/07/24 06:59:19;;;;;;;1.35;1.20;;;;;;;25.33;49.17;93867.41;5032110;28;20369;-91
2022/07/24 07:01:45;;;;;;;1.35;1.25;;;;;;;25.35;49.01;93862.03;5063585;28;20609;-90
2022/07/24 07:04:10;;;;;;;1.33;1.23;;;;;;;25.34;49.06;93857.78;5052124;28;20043;-92
2022/07/24 07:06:36;;;;;;;1.23;1.05;;;;;;;25.37;49.26;93867.78;5073181;28;20036;-90
2022/07/24 07:09:01;;;;;;;1.42;1.33;;;;;;;25.37;49.23;93865.00;5074127;28;20044;-90
2022/07/24 07:11:27;;;;;;;1.67;1.20;;;;;;;25.37;49.16;93865.00;5053756;28;20032;-90
2022/07/24 07:13:52;;;;;;;1.20;1.10;;;;;;;25.39;49.15;93872.75;5054395;28;20090;-90
2022/07/24 07:16:17;;;;;;;1.52;1.27;;;;;;;25.40;49.01;93865.94;5054801;28;20043;-91
2022/07/24 07:18:43;;;;;;;2.15;1.50;;;;;;;25.40;48.73;93871.47;5036683;28;20136;-91
2022/07/24 07:21:08;;;;;;;2.15;1.40;;;;;;;25.41;48.91;93862.63;5021323;28;20039;-91
2022/07/24 07:23:34;;;;;;;1.90;1.67;;;;;;;25.40;49.18;93880.53;5016073;28;20036;-90
2022/07/24 07:25:59;;;;;;;1.75;1.63;;;;;;;25.42;49.09;93868.91;5036284;28;20123;-91
2022/07/24 07:28:24;;;;;;;1.60;1.50;;;;;;;25.43;49.08;93867.63;5053194;28;20044;-91
2022/07/24 07:30:50;;;;;;;1.70;1.52;;;;;;;25.42;49.07;93872.41;5020892;28;20368;-91
2022/07/24 07:33:15;;;;;;;1.45;1.35;;;;;;;25.44;49.10;93866.34;5053290;28;20033;-91
2022/07/24 07:35:41;;;;;;;1.73;1.50;;;;;;;25.44;49.17;93869.84;5033330;28;20507;-91
2022/07/24 07:38:06;;;;;;;1.38;1.15;;;;;;;25.45;48.85;93867.81;5051334;28;20402;-91
2022/07/24 07:40:32;;;;;;;1.77;1.40;;;;;;;25.48;49.06;93872.28;5055366;28;20499;-91
2022/07/24 07:42:57;;;;;;;1.60;1.50;;;;;;;25.44;48.86;93872.63;5029457;28;20531;-91
2022/07/24 07:48:44;;;;;;;1.77;1.63;;;;;;;25.45;49.03;93878.91;5022795;28;20087;-91
2022/07/24 07:51:10;;;;;;;1.70;1.60;;;;;;;25.48;48.99;93886.09;5034384;28;20033;-90
2022/07/24 07:53:35;;;;;;;1.88;1.65;;;;;;;25.47;49.20;93882.59;5035877;28;20036;-90
2022/07/24 07:56:01;;;;;;;1.70;1.35;;;;;;;25.46;48.93;93883.88;5019289;28;20033;-90
2022/07/24 07:58:27;;;;;;;1.80;1.42;;;;;;;25.48;49.14;93880.56;5049343;28;20450;-91
2022/07/24 08:00:52;;;;;;;1.70;1.60;;;;;;;25.48;48.96;93886.09;5021279;28;20097;-90
2022/07/24 08:03:18;;;;;;;2.70;1.65;;;;;;;25.48;49.03;93883.34;5036392;28;20041;-92
2022/07/24 08:05:43;;;;;;;1.85;1.50;;;;;;;25.46;48.94;93881.13;5035328;28;20040;-90
2022/07/24 08:08:09;;;;;;;2.10;1.60;;;;;;;25.48;48.78;93880.56;5048928;28;20078;-91
2022/07/24 08:10:34;;;;;;;2.38;1.45;;;;;;;25.46;49.24;93878.34;5032534;28;20043;-91
2022/07/24 08:12:59;;;;;;;2.17;1.88;;;;;;;25.50;48.89;93875.22;5038283;28;20036;-91
2022/07/24 08:15:25;;;;;;;1.85;1.55;;;;;;;25.48;49.03;93878.53;5037272;28;20048;-91
2022/07/24 08:17:52;;;;;;;2.03;1.83;;;;;;;25.48;48.83;93877.81;5048736;28;20041;-93
2022/07/24 08:20:17;;;;;;;1.48;1.30;;;;;;;25.48;48.88;93870.25;5036824;28;20060;-91
2022/07/24 08:22:43;;;;;;;2.00;1.48;;;;;;;25.48;49.11;93872.28;5047384;28;20044;-91
2022/07/24 08:25:08;;;;;;;1.75;1.58;;;;;;;25.48;49.00;93870.25;5052271;28;20048;-91
2022/07/24 08:27:37;;;;;;;1.67;1.50;;;;;;;25.46;49.07;93878.34;5052494;28;20041;-90
2022/07/24 08:30:04;;;;;;;1.70;1.52;;;;;;;25.48;49.11;93878.53;5047377;28;20649;-90
2022/07/24 08:32:29;;;;;;;1.75;1.42;;;;;;;25.48;48.99;93877.81;5048592;28;20029;-90
2022/07/24 08:34:55;;;;;;;1.80;1.48;;;;;;;25.49;48.97;93879.28;5035727;28;20161;-90
2022/07/24 08:37:20;;;;;;;1.83;1.60;;;;;;;25.48;49.09;93877.81;5031955;28;20040;-90
2022/07/24 08:39:46;;;;;;;2.20;1.40;;;;;;;25.49;49.22;93873.75;5052296;28;20093;-90
2022/07/24 08:42:11;;;;;;;2.80;2.00;;;;;;;25.49;49.13;93879.28;5018742;28;20044;-90
2022/07/24 08:44:38;;;;;;;1.50;1.40;;;;;;;25.49;48.96;93877.25;5034541;28;20075;-91
2022/07/24 08:47:04;;;;;;;1.88;1.67;;;;;;;25.49;49.04;93873.75;5017827;28;20037;-90
2022/07/24 08:49:30;;;;;;;1.67;1.40;;;;;;;25.46;49.04;93886.66;5040594;28;20051;-91
2022/07/24 08:51:56;;;;;;;1.80;1.35;;;;;;;25.49;48.84;93880.03;5072394;28;20036;-91
2022/07/24 08:54:21;;;;;;;4.10;2.00;;;;;;;25.47;49.17;93879.09;5071138;28;20406;-91
2022/07/24 08:56:47;;;;;;;2.33;1.60;;;;;;;25.48;48.91;93880.56;5071193;28;20364;-90
2022/07/24 08:59:17;;;;;;;2.90;1.98;;;;;;;25.46;49.42;93883.88;5071470;28;20411;-91
2022/07/24 09:01:42;;;;;;;4.50;2.05;;;;;;;25.49;49.10;93888.34;5034328;28;20041;-90
2022/07/24 09:04:34;;;;;;;2.75;1.80;;;;;;;25.46;49.15;93888.69;5034998;28;20404;-90
2022/07/24 09:07:00;;;;;;;3.47;1.70;;;;;;;25.48;48.98;93891.66;5061398;28;20036;-91
2022/07/24 09:09:25;;;;;;;2.13;1.65;;;;;;;25.46;49.03;93881.13;5034103;28;20110;-90
2022/07/24 09:12:13;;;;;;;5.82;1.92;;;;;;;25.43;49.23;93873.91;5034735;28;20406;-90
2022/07/24 09:14:40;;;;;;;1.88;1.60;;;;;;;25.48;48.91;93880.56;5064982;28;20051;-90
2022/07/24 09:17:10;;;;;;;1.98;1.60;;;;;;;25.46;49.25;93874.84;5053633;28;20028;-92
2022/07/24 09:19:47;;;;;;;3.55;1.65;;;;;;;25.45;49.07;93874.09;5053768;28;20562;-90
2022/07/24 09:22:19;;;;;;;4.07;2.03;;;;;;;25.46;49.05;93886.66;5055560;28;20064;-91
2022/07/24 09:24:44;;;;;;;2.50;1.95;;;;;;;25.46;49.18;93877.59;5053065;28;20047;-90
2022/07/24 09:27:13;;;;;;;2.28;2.03;;;;;;;25.48;48.73;93877.81;5029666;28;20041;-90
2022/07/24 09:29:39;;;;;;;3.22;2.10;;;;;;;25.48;48.87;93878.53;5016085;28;20120;-91
2022/07/24 09:32:04;;;;;;;3.03;2.28;;;;;;;25.49;49.25;93873.75;5034115;28;20044;-91
2022/07/24 09:34:38;;;;;;;2.60;1.48;;;;;;;25.45;48.97;93873.34;5050053;28;20041;-91
2022/07/24 09:37:05;;;;;;;2.60;1.45;;;;;;;25.50;48.86;93870.44;5019266;28;20090;-90
2022/07/24 09:39:32;;;;;;;1.70;1.60;;;;;;;25.48;48.92;93861.94;5055195;28;20407;-90
2022/07/24 09:41:58;;;;;;;1.98;1.52;;;;;;;25.49;49.01;93873.75;5068679;28;20448;-91
2022/07/24 09:44:25;;;;;;;5.13;2.05;;;;;;;25.48;49.22;93861.94;5053912;28;20526;-90
2022/07/24 09:47:03;;;;;;;2.30;1.63;;;;;;;25.45;49.06;93865.78;5037426;28;20040;-91
2022/07/24 09:49:29;;;;;;;2.28;1.80;;;;;;;25.49;49.21;93874.50;5049528;28;20186;-91
2022/07/24 09:52:14;;;;;;;1.83;1.55;;;;;;;25.45;49.13;93865.06;5017480;28;20148;-90
2022/07/24 09:54:46;;;;;;;2.15;1.63;;;;;;;25.48;49.05;93867.47;5050533;28;20051;-90
2022/07/24 09:57:19;;;;;;;1.98;1.60;;;;;;;25.48;48.98;93863.97;5032219;28;20539;-90
2022/07/24 09:59:47;;;;;;;1.77;1.48;;;;;;;25.49;49.08;93857.88;5033740;28;20139;-90
2022/07/24 10:02:17;;;;;;;1.83;1.60;;;;;;;25.49;48.93;93857.13;5043086;28;20036;-91
2022/07/24 10:04:44;;;;;;;2.13;1.60;;;;;;;25.49;48.92;93868.97;5051700;28;20135;-91
2022/07/24 10:07:10;;;;;;;1.90;1.48;;;;;;;25.49;49.10;93860.66;5036756;28;20040;-90
2022/07/24 10:09:35;;;;;;;1.90;1.70;;;;;;;25.48;49.20;93850.88;5035170;28;20028;-92
2022/07/24 10:12:01;;;;;;;2.28;1.52;;;;;;;25.51;48.92;93857.34;5054214;28;20444;-91
2022/07/24 10:14:26;;;;;;;2.03;1.70;;;;;;;25.50;48.97;93861.38;5069805;28;20031;-90
2022/07/24 10:17:03;;;;;;;1.88;1.48;;;;;;;25.46;49.25;93853.44;5052427;28;20040;-91
2022/07/24 10:19:31;;;;;;;2.65;1.77;;;;;;;25.49;49.09;93854.38;5051217;28;20047;-90
2022/07/24 10:21:56;;;;;;;2.00;1.80;;;;;;;25.48;49.06;93852.88;5031761;28;20127;-90
2022/07/24 10:24:24;;;;;;;2.15;1.92;;;;;;;25.50;48.98;93853.81;5032400;28;20817;-90
2022/07/24 10:26:50;;;;;;;3.50;1.88;;;;;;;25.48;49.27;93852.88;5080863;28;20233;-90
2022/07/24 10:29:20;;;;;;;1.85;1.70;;;;;;;25.48;49.11;93850.88;5035472;28;20024;-90
2022/07/24 10:31:51;;;;;;;1.45;1.30;;;;;;;25.49;49.22;93848.84;5035373;28;20678;-90
2022/07/24 10:34:27;;;;;;;2.63;1.80;;;;;;;25.49;49.14;93849.56;5035630;28;20111;-90
2022/07/24 10:37:26;;;;;;;2.63;1.98;;;;;;;25.46;49.23;93838.84;5050096;28;20549;-91
2022/07/24 10:40:11;;;;;;;1.60;1.40;;;;;;;25.47;49.18;93843.84;5032284;28;20538;-92
2022/07/24 10:43:10;;;;;;;2.00;1.80;;;;;;;25.46;49.05;93847.91;5051236;28;20032;-90
2022/07/24 10:45:39;;;;;;;1.80;1.53;;;;;;;25.48;49.10;93842.56;5067664;28;20040;-90
2022/07/24 10:48:20;;;;;;;1.85;1.67;;;;;;;25.47;49.23;93838.31;5032718;28;20036;-91
2022/07/24 10:51:05;;;;;;;1.90;1.50;;;;;;;25.46;49.29;93842.38;5060854;28;20048;-90
2022/07/24 10:53:36;;;;;;;1.95;1.70;;;;;;;25.48;49.18;93828.72;5068524;28;20040;-91
2022/07/24 10:56:22;;;;;;;2.10;1.88;;;;;;;25.46;49.25;93831.28;5070144;28;20241;-90
2022/07/24 10:59:06;;;;;;;2.17;1.33;;;;;;;25.46;49.22;93836.09;5067638;28;20105;-90
2022/07/24 11:01:42;;;;;;;1.58;1.27;;;;;;;25.48;49.34;93836.28;5035280;28;20040;-91
2022/07/24 11:04:23;;;;;;;2.15;1.88;;;;;;;25.48;49.36;93827.97;5067040;28;20125;-91
2022/07/24 11:06:54;;;;;;;;;;;;;;;25.45;49.25;93832.56;5067399;28;20032;-91
2022/07/24 11:09:24;;;;;;;2.75;1.55;;;;;;;25.49;49.02;93823.94;5068654;28;20297;-91
2022/07/24 11:11:52;;;;;;;2.13;1.77;;;;;;;25.48;49.00;93823.19;5053397;28;20544;-90
2022/07/24 11:14:23;;;;;;;2.00;1.23;;;;;;;25.49;49.04;93826.69;5068600;28;20395;-91
2022/07/24 11:16:48;;;;;;;1.90;1.65;;;;;;;25.48;49.28;93825.22;5035748;28;20043;-91
2022/07/24 11:19:14;;;;;;;1.77;1.60;;;;;;;25.50;49.19;93822.63;5035390;28;20045;-90
2022/07/24 11:21:41;;;;;;;1.70;1.50;;;;;;;25.49;49.33;93821.91;5069636;28;20036;-90
2022/07/24 11:24:16;;;;;;;2.10;1.58;;;;;;;25.46;49.28;93825.75;5030130;28;20131;-90
2022/07/24 11:27:07;;;;;;;1.90;1.58;;;;;;;25.46;49.49;93816.72;5068577;28;20051;-90
2022/07/24 11:29:35;;;;;;;;;;;;;;;25.43;49.27;93813.00;5047135;28;20044;-91
2022/07/24 11:32:00;;;;;;;2.28;1.50;;;;;;;25.48;49.23;93809.34;5086200;28;19920;-91
2022/07/24 11:34:26;;;;;;;1.65;1.40;;;;;;;25.49;49.22;93815.63;5086385;28;20033;-90
2022/07/24 11:36:52;;;;;;;2.00;1.55;;;;;;;25.49;49.34;93807.31;5036438;28;20040;-91